createdAt,value
2019-01-08T00:02:27.811Z,101741.17
2019-01-08T00:04:56.477Z,101725.36
2019-01-08T00:07:25.172Z,101714.42
2019-01-08T00:09:53.683Z,101711.73
2019-01-08T00:12:22.142Z,101724.62
2019-01-08T00:14:52.249Z,101720.66
2019-01-08T00:17:20.870Z,101715.32
2019-01-08T00:19:50.043Z,101718.02
2019-01-08T00:22:18.548Z,101712.61
2019-01-08T00:24:47.161Z,101704.29
2019-01-08T00:27:15.771Z,101703.78
2019-01-08T00:29:44.407Z,101694.49
2019-01-08T00:32:12.824Z,101704.23
2019-01-08T00:34:41.378Z,101690.97
2019-01-08T00:37:10.066Z,101693.38
2019-01-08T00:39:38.549Z,101701.19
2019-01-08T00:42:07.065Z,101700.56
2019-01-08T00:44:35.763Z,101707.39
2019-01-08T00:47:04.333Z,101705.64
2019-01-08T00:49:32.963Z,101688.23
2019-01-08T00:52:01.578Z,101688.59
2019-01-08T00:54:30.194Z,101672.41
2019-01-08T00:56:58.800Z,101669.73
2019-01-08T00:59:27.339Z,101671.68
2019-01-08T01:01:55.925Z,101671.72
2019-01-08T01:04:24.564Z,101670.65
2019-01-08T01:06:53.246Z,101673.86
2019-01-08T01:09:21.879Z,101678.21
2019-01-08T01:11:50.633Z,101688.21
2019-01-08T01:14:19.161Z,101684.11
2019-01-08T01:16:47.689Z,101681.63
2019-01-08T01:19:16.289Z,101677.69
2019-01-08T01:21:44.878Z,101667.41
2019-01-08T01:24:13.433Z,101670.25
2019-01-08T01:26:42.138Z,101665.48
2019-01-08T01:29:10.609Z,101659.03
2019-01-08T01:31:39.153Z,101659.03
2019-01-08T01:34:07.758Z,101656.09
2019-01-08T01:36:36.448Z,101663.09
2019-01-08T01:39:06.440Z,101653.39
2019-01-08T01:41:35.053Z,101658.52
2019-01-08T01:44:03.624Z,101659.88
2019-01-08T01:46:32.156Z,101660.67
2019-01-08T01:49:00.776Z,101664.47
2019-01-08T01:51:29.417Z,101654.99
2019-01-08T01:53:57.962Z,101652.30
2019-01-08T01:56:26.531Z,101655.46
2019-01-08T01:58:55.059Z,101649.31
2019-01-08T02:01:23.680Z,101649.09
2019-01-08T02:03:52.270Z,101658.27
2019-01-08T02:06:21.331Z,101665.54
2019-01-08T02:08:49.961Z,101659.06
2019-01-08T02:11:18.518Z,101661.48
2019-01-08T02:13:47.071Z,101662.59
2019-01-08T02:16:15.650Z,101664.19
2019-01-08T02:18:44.351Z,101662.59
2019-01-08T02:21:12.978Z,101649.36
2019-01-08T02:23:41.485Z,101654.74
2019-01-08T02:26:10.002Z,101647.73
2019-01-08T02:28:38.564Z,101638.53
2019-01-08T02:31:07.113Z,101632.52
2019-01-08T02:33:35.731Z,101642.26
2019-01-08T02:36:04.403Z,101641.23
2019-01-08T02:38:33.017Z,101647.99
2019-01-08T02:41:01.538Z,101641.78
2019-01-08T02:43:30.057Z,101639.35
2019-01-08T02:45:58.622Z,101636.94
2019-01-08T02:48:27.138Z,101630.44
2019-01-08T02:50:55.776Z,101633.94
2019-01-08T02:53:24.327Z,101639.89
2019-01-08T02:55:52.954Z,101635.59
2019-01-08T02:58:22.077Z,101640.42
2019-01-08T03:00:50.890Z,101629.91
2019-01-08T03:03:19.378Z,101626.95
2019-01-08T03:05:47.883Z,101631.78
2019-01-08T03:08:16.389Z,101628.00
2019-01-08T03:10:44.932Z,101621.25
2019-01-08T03:13:13.486Z,101627.19
2019-01-08T03:15:42.007Z,101622.62
2019-01-08T03:18:10.564Z,101625.56
2019-01-08T03:20:39.172Z,101616.94
2019-01-08T03:23:07.865Z,101611.50
2019-01-08T03:25:36.415Z,101613.37
2019-01-08T03:28:05.093Z,101603.68
2019-01-08T03:30:33.627Z,101600.71
2019-01-08T03:33:02.156Z,101594.52
2019-01-08T03:35:30.704Z,101595.06
2019-01-08T03:37:59.418Z,101589.97
2019-01-08T03:40:27.947Z,101581.60
2019-01-08T03:42:56.475Z,101577.81
2019-01-08T03:45:24.989Z,101571.88
2019-01-08T03:47:53.583Z,101564.85
2019-01-08T03:50:23.040Z,101556.24
2019-01-08T03:52:51.558Z,101559.75
2019-01-08T03:55:20.177Z,101551.91
2019-01-08T03:57:48.684Z,101553.27
2019-01-08T04:00:17.273Z,101552.17
2019-01-08T04:02:45.750Z,101552.98
2019-01-08T04:05:14.248Z,101554.33
2019-01-08T04:07:42.870Z,101543.56
2019-01-08T04:10:11.409Z,101538.70
2019-01-08T04:12:39.938Z,101530.58
2019-01-08T04:15:08.525Z,101532.45
2019-01-08T04:17:37.065Z,101522.92
2019-01-08T04:20:05.857Z,101524.83
2019-01-08T04:22:34.389Z,101519.17
2019-01-08T04:25:02.983Z,101513.25
2019-01-08T04:27:31.663Z,101518.42
2019-01-08T04:30:00.368Z,101505.21
2019-01-08T04:32:28.974Z,101497.67
2019-01-08T04:34:57.524Z,101499.02
2019-01-08T04:37:26.107Z,101489.31
2019-01-08T04:39:54.702Z,101486.88
2019-01-08T04:42:23.494Z,101482.28
2019-01-08T04:44:51.996Z,101479.82
2019-01-08T04:47:20.622Z,101476.03
2019-01-08T04:49:49.160Z,101472.48
2019-01-08T04:52:17.679Z,101468.38
2019-01-08T04:54:46.311Z,101467.80
2019-01-08T04:57:14.906Z,101461.38
2019-01-08T04:59:43.438Z,101464.91
2019-01-08T05:02:11.996Z,101457.94
2019-01-08T05:04:40.501Z,101464.47
2019-01-08T05:07:09.032Z,101450.95
2019-01-08T05:09:37.509Z,101462.30
2019-01-08T05:12:05.952Z,101447.71
2019-01-08T05:14:34.447Z,101442.55
2019-01-08T05:17:03.041Z,101447.99
2019-01-08T05:19:31.564Z,101440.37
2019-01-08T05:22:00.110Z,101430.90
2019-01-08T05:24:28.652Z,101430.89
2019-01-08T05:26:57.270Z,101422.13
2019-01-08T05:29:25.827Z,101420.69
2019-01-08T05:31:54.278Z,101428.89
2019-01-08T05:34:22.861Z,101420.92
2019-01-08T05:36:51.318Z,101431.22
2019-01-08T05:39:19.818Z,101418.31
2019-01-08T05:41:48.321Z,101421.59
2019-01-08T05:44:16.950Z,101425.64
2019-01-08T05:46:45.407Z,101406.75
2019-01-08T05:49:13.932Z,101422.95
2019-01-08T05:51:42.561Z,101425.41
2019-01-08T05:54:11.180Z,101416.77
2019-01-08T05:56:39.704Z,101399.78
2019-01-08T05:59:08.257Z,101402.97
2019-01-08T06:01:36.985Z,101395.91
2019-01-08T06:04:05.543Z,101395.77
2019-01-08T06:06:34.193Z,101384.98
2019-01-08T06:09:02.796Z,101388.61
2019-01-08T06:11:31.411Z,101388.64
2019-01-08T06:13:59.870Z,101384.64
2019-01-08T06:16:28.438Z,101381.16
2019-01-08T06:18:57.090Z,101382.51
2019-01-08T06:21:25.540Z,101368.53
2019-01-08T06:23:55.197Z,101364.98
2019-01-08T06:26:23.628Z,101369.84
2019-01-08T06:28:52.195Z,101360.66
2019-01-08T06:31:22.631Z,101366.84
2019-01-08T06:33:51.043Z,101376.31
2019-01-08T06:36:19.599Z,101391.11
2019-01-08T06:38:48.030Z,101408.25
2019-01-08T06:41:16.660Z,101397.96
2019-01-08T06:43:45.236Z,101410.49
2019-01-08T06:46:13.771Z,101412.18
2019-01-08T06:48:42.279Z,101402.75
2019-01-08T06:51:10.837Z,101412.20
2019-01-08T06:53:39.367Z,101398.71
2019-01-08T06:56:07.884Z,101391.19
2019-01-08T06:58:36.552Z,101384.95
2019-01-08T07:01:05.133Z,101386.31
2019-01-08T07:03:33.765Z,101376.08
2019-01-08T07:06:02.397Z,101371.18
2019-01-08T07:08:30.963Z,101372.55
2019-01-08T07:10:59.545Z,101368.70
2019-01-08T07:13:28.071Z,101375.14
2019-01-08T07:15:56.687Z,101365.05
2019-01-08T07:18:25.729Z,101358.65
2019-01-08T07:20:54.691Z,101361.16
2019-01-08T07:23:23.345Z,101370.38
2019-01-08T07:25:51.859Z,101360.41
2019-01-08T07:28:20.495Z,101367.97
2019-01-08T07:30:49.172Z,101371.75
2019-01-08T07:33:17.775Z,101359.32
2019-01-08T07:35:46.370Z,101351.21
2019-01-08T07:38:15.026Z,101357.70
2019-01-08T07:40:43.613Z,101354.41
2019-01-08T07:43:12.167Z,101353.88
2019-01-08T07:45:40.682Z,101355.23
2019-01-08T07:48:09.246Z,101344.94
2019-01-08T07:50:37.822Z,101346.94
2019-01-08T07:53:06.412Z,101344.55
2019-01-08T07:55:35.052Z,101339.55
2019-01-08T07:58:03.707Z,101335.56
2019-01-08T08:00:32.182Z,101335.61
2019-01-08T08:03:00.764Z,101330.74
2019-01-08T08:05:29.299Z,101329.69
2019-01-08T08:07:57.868Z,101321.60
2019-01-08T08:10:26.429Z,101328.33
2019-01-08T08:12:54.955Z,101326.39
2019-01-08T08:15:23.551Z,101335.81
2019-01-08T08:17:52.139Z,101329.31
2019-01-08T08:20:20.672Z,101323.66
2019-01-08T08:22:49.295Z,101327.36
2019-01-08T08:25:17.848Z,101323.14
2019-01-08T08:27:46.454Z,101321.44
2019-01-08T08:30:15.225Z,101309.70
2019-01-08T08:32:43.727Z,101319.76
2019-01-08T08:35:12.617Z,101314.45
2019-01-08T08:37:41.231Z,101332.06
2019-01-08T08:40:09.798Z,101314.00
2019-01-08T08:42:38.382Z,101325.05
2019-01-08T08:45:08.592Z,101299.40
2019-01-08T08:47:37.267Z,101313.16
2019-01-08T08:50:07.047Z,101295.88
2019-01-08T08:52:35.608Z,101317.17
2019-01-08T08:55:04.430Z,101306.88
2019-01-08T08:57:32.966Z,101303.58
2019-01-08T09:00:01.607Z,101303.79
2019-01-08T09:02:30.275Z,101301.98
2019-01-08T09:04:58.902Z,101296.14
2019-01-08T09:07:27.461Z,101305.17
2019-01-08T09:09:57.045Z,101298.22
2019-01-08T09:12:25.756Z,101303.12
2019-01-08T09:14:54.278Z,101303.38
2019-01-08T09:17:22.847Z,101304.17
2019-01-08T09:19:51.387Z,101313.87
2019-01-08T09:22:19.836Z,101318.69
2019-01-08T09:24:48.372Z,101316.49
2019-01-08T09:27:16.893Z,101321.37
2019-01-08T09:29:45.547Z,101321.94
2019-01-08T09:32:14.223Z,101322.74
2019-01-08T09:34:42.675Z,101319.98
2019-01-08T09:37:11.300Z,101324.00
2019-01-08T09:39:39.813Z,101315.64
2019-01-08T09:42:08.466Z,101320.39
2019-01-08T09:44:37.102Z,101316.66
2019-01-08T09:47:05.717Z,101313.76
2019-01-08T09:49:34.327Z,101304.90
2019-01-08T09:52:02.911Z,101312.23
2019-01-08T09:54:31.501Z,101315.69
2019-01-08T09:57:00.045Z,101305.67
2019-01-08T09:59:28.685Z,101298.67
2019-01-08T10:01:57.529Z,101306.48
2019-01-08T10:04:26.068Z,101305.66
2019-01-08T10:06:54.698Z,101297.20
2019-01-08T10:09:23.385Z,101311.13
2019-01-08T10:11:51.972Z,101301.72
2019-01-08T10:14:20.614Z,101292.38
2019-01-08T10:16:49.224Z,101294.38
2019-01-08T10:19:17.813Z,101291.33
2019-01-08T10:21:46.426Z,101294.48
2019-01-08T10:24:14.987Z,101297.02
2019-01-08T10:26:43.670Z,101300.30
2019-01-08T10:29:12.164Z,101288.70
2019-01-08T10:31:40.717Z,101274.35
2019-01-08T10:34:09.320Z,101266.75
2019-01-08T10:36:37.834Z,101268.67
2019-01-08T10:39:07.429Z,101282.35
2019-01-08T10:41:36.047Z,101278.84
2019-01-08T10:44:04.698Z,101280.92
2019-01-08T10:46:37.447Z,101287.50
2019-01-08T10:49:03.439Z,101282.05
2019-01-08T10:51:31.934Z,101261.33
2019-01-08T10:54:00.424Z,101265.14
2019-01-08T10:56:29.052Z,101270.17
2019-01-08T10:58:58.052Z,101261.14
2019-01-08T11:01:26.608Z,101272.19
2019-01-08T11:03:55.167Z,101264.14
2019-01-08T11:06:23.699Z,101283.59
2019-01-08T11:08:52.327Z,101270.89
2019-01-08T11:11:20.953Z,101270.80
2019-01-08T11:13:49.629Z,101284.22
2019-01-08T11:16:18.242Z,101271.21
2019-01-08T11:18:47.839Z,101274.14
2019-01-08T11:21:16.377Z,101265.05
2019-01-08T11:23:44.900Z,101268.05
2019-01-08T11:26:13.450Z,101256.41
2019-01-08T11:28:43.172Z,101256.66
2019-01-08T11:31:11.936Z,101265.64
2019-01-08T11:33:40.619Z,101259.77
2019-01-08T11:36:09.140Z,101256.00
2019-01-08T11:38:37.687Z,101248.55
2019-01-08T11:41:06.290Z,101264.75
2019-01-08T11:43:34.844Z,101262.92
2019-01-08T11:46:03.426Z,101269.42
2019-01-08T11:48:32.033Z,101275.62
2019-01-08T11:51:00.705Z,101267.75
2019-01-08T11:53:29.338Z,101268.45
2019-01-08T11:55:59.076Z,101268.09
2019-01-08T11:58:28.735Z,101273.31
2019-01-08T12:00:57.335Z,101269.28
2019-01-08T12:03:26.032Z,101265.20
2019-01-08T12:05:54.588Z,101262.87
2019-01-08T12:08:23.192Z,101254.17
2019-01-08T12:10:51.751Z,101259.87
2019-01-08T12:13:20.370Z,101253.79
2019-01-08T12:15:49.025Z,101241.12
2019-01-08T12:18:17.591Z,101252.15
2019-01-08T12:20:46.181Z,101247.41
2019-01-08T12:23:14.759Z,101243.21
2019-01-08T12:25:43.300Z,101245.47
2019-01-08T12:28:11.878Z,101240.52
2019-01-08T12:30:40.506Z,101245.48
2019-01-08T12:33:09.035Z,101235.69
2019-01-08T12:35:37.560Z,101220.63
2019-01-08T12:38:06.201Z,101238.08
2019-01-08T12:40:34.716Z,101239.48
2019-01-08T12:43:03.236Z,101246.06
2019-01-08T12:45:31.738Z,101233.34
2019-01-08T12:48:00.261Z,101224.92
2019-01-08T12:50:29.369Z,101223.81
2019-01-08T12:52:57.961Z,101224.72
2019-01-08T12:55:26.590Z,101227.12
2019-01-08T12:57:55.192Z,101224.52
2019-01-08T13:00:23.834Z,101235.48
2019-01-08T13:02:52.356Z,101224.88
2019-01-08T13:05:20.990Z,101224.41
2019-01-08T13:07:49.538Z,101250.08
2019-01-08T13:11:13.602Z,101245.17
2019-01-08T13:13:42.121Z,101251.80
2019-01-08T13:16:10.733Z,101254.81
2019-01-08T13:18:39.276Z,101265.52
2019-01-08T13:21:07.879Z,101247.73
2019-01-08T13:23:36.329Z,101246.64
2019-01-08T13:26:04.961Z,101244.78
2019-01-08T13:28:33.581Z,101237.97
2019-01-08T13:31:02.149Z,101245.66
2019-01-08T13:33:30.602Z,101233.36
2019-01-08T13:35:59.168Z,101242.08
2019-01-08T13:38:27.750Z,101245.58
2019-01-08T13:40:56.862Z,101251.96
2019-01-08T13:43:25.390Z,101246.51
2019-01-08T13:45:53.958Z,101252.78
2019-01-08T13:48:22.581Z,101256.52
2019-01-08T13:50:51.218Z,101268.73
2019-01-08T13:53:19.810Z,101257.02
2019-01-08T13:55:48.342Z,101267.72
2019-01-08T13:58:17.049Z,101262.77
2019-01-08T14:00:45.609Z,101254.26
2019-01-08T14:03:14.126Z,101265.06
2019-01-08T14:05:43.341Z,101262.33
2019-01-08T14:08:11.985Z,101270.92
2019-01-08T14:10:40.502Z,101270.92
2019-01-08T14:13:08.969Z,101274.60
2019-01-08T14:15:37.620Z,101266.59
2019-01-08T14:18:06.230Z,101279.70
2019-01-08T14:20:34.844Z,101278.50
2019-01-08T14:23:03.353Z,101281.16
2019-01-08T14:25:31.944Z,101282.92
2019-01-08T14:28:00.595Z,101267.14
2019-01-08T14:30:29.550Z,101288.71
2019-01-08T14:32:58.202Z,101294.79
2019-01-08T14:35:26.767Z,101278.64
2019-01-08T14:37:55.319Z,101301.34
2019-01-08T14:40:23.865Z,101307.77
2019-01-08T14:42:52.585Z,101304.28
2019-01-08T14:45:21.188Z,101288.89
2019-01-08T14:47:49.824Z,101291.56
2019-01-08T14:50:18.505Z,101292.91
2019-01-08T14:52:47.062Z,101298.48
2019-01-08T14:55:15.664Z,101274.28
2019-01-08T14:57:44.251Z,101294.42
2019-01-08T15:00:13.075Z,101304.58
2019-01-08T15:02:49.206Z,101315.23
2019-01-08T15:05:11.965Z,101314.99
2019-01-08T15:07:40.535Z,101322.33
2019-01-08T15:10:09.330Z,101317.00
2019-01-08T15:12:37.944Z,101322.18
2019-01-08T15:15:06.993Z,101335.36
2019-01-08T15:17:35.572Z,101341.84
2019-01-08T15:20:05.151Z,101329.95
2019-01-08T15:22:33.844Z,101336.46
2019-01-08T15:25:02.480Z,101339.92
2019-01-08T15:27:31.068Z,101349.60
2019-01-08T15:30:00.170Z,101334.84
2019-01-08T15:32:28.818Z,101340.07
2019-01-08T15:34:57.433Z,101328.69
2019-01-08T15:37:26.009Z,101339.33
2019-01-08T15:39:54.614Z,101338.34
2019-01-08T15:42:23.195Z,101342.97
2019-01-08T15:44:51.836Z,101333.80
2019-01-08T15:47:20.356Z,101349.86
2019-01-08T15:49:48.973Z,101349.84
2019-01-08T15:52:17.526Z,101356.55
2019-01-08T15:54:46.159Z,101351.69
2019-01-08T15:57:14.591Z,101349.77
2019-01-08T15:59:43.210Z,101350.84
2019-01-08T16:02:11.855Z,101357.54
2019-01-08T16:04:40.480Z,101358.34
2019-01-08T16:07:09.069Z,101343.72
2019-01-08T16:09:37.699Z,101337.75
2019-01-08T16:12:06.294Z,101335.38
2019-01-08T16:14:34.911Z,101348.25
2019-01-08T16:17:03.533Z,101348.03
2019-01-08T16:19:32.134Z,101341.52
2019-01-08T16:22:00.869Z,101342.18
2019-01-08T16:24:29.499Z,101348.45
2019-01-08T16:26:58.094Z,101338.94
2019-01-08T16:29:26.732Z,101340.25
2019-01-08T16:31:55.500Z,101346.17
2019-01-08T16:34:24.156Z,101348.34
2019-01-08T16:36:52.652Z,101358.59
2019-01-08T16:39:21.323Z,101350.45
2019-01-08T16:41:50.108Z,101347.14
2019-01-08T16:44:18.740Z,101344.78
2019-01-08T16:46:47.441Z,101336.50
2019-01-08T16:49:16.140Z,101342.02
2019-01-08T16:51:44.662Z,101342.08
2019-01-08T16:54:13.237Z,101348.61
2019-01-08T16:56:41.818Z,101359.09
2019-01-08T16:59:10.399Z,101346.34
2019-01-08T17:01:38.977Z,101354.77
2019-01-08T17:04:07.602Z,101353.14
2019-01-08T17:06:36.216Z,101353.97
2019-01-08T17:09:06.215Z,101351.05
2019-01-08T17:11:34.731Z,101355.34
2019-01-08T17:14:03.405Z,101356.69
2019-01-08T17:16:31.943Z,101357.39
2019-01-08T17:19:01.745Z,101356.24
2019-01-08T17:21:30.440Z,101362.70
2019-01-08T17:23:59.029Z,101365.50
2019-01-08T17:26:27.746Z,101373.67
2019-01-08T17:28:56.295Z,101372.88
2019-01-08T17:31:24.962Z,101394.03
2019-01-08T17:33:53.582Z,101368.14
2019-01-08T17:36:22.285Z,101401.36
2019-01-08T17:38:50.829Z,101382.52
2019-01-08T17:41:19.455Z,101408.16
2019-01-08T17:43:48.167Z,101397.62
2019-01-08T17:46:16.774Z,101407.36
2019-01-08T17:48:45.357Z,101392.25
2019-01-08T17:51:14.073Z,101391.99
2019-01-08T17:53:42.887Z,101394.41
2019-01-08T17:56:11.493Z,101380.86
2019-01-08T17:58:42.172Z,101390.35
2019-01-08T18:01:17.449Z,101381.73
2019-01-08T18:03:47.074Z,101383.89
2019-01-08T18:06:15.739Z,101378.79
2019-01-08T18:08:44.291Z,101379.03
2019-01-08T18:11:12.949Z,101379.85
2019-01-08T18:13:41.524Z,101381.21
2019-01-08T18:16:10.135Z,101380.67
2019-01-08T18:18:38.746Z,101391.70
2019-01-08T18:21:07.369Z,101379.00
2019-01-08T18:23:35.882Z,101381.72
2019-01-08T18:26:04.514Z,101386.30
2019-01-08T18:28:33.099Z,101383.81
2019-01-08T18:31:02.824Z,101378.34
2019-01-08T18:33:31.457Z,101376.70
2019-01-08T18:36:00.091Z,101376.52
2019-01-08T18:38:28.803Z,101386.27
2019-01-08T18:40:57.518Z,101379.28
2019-01-08T18:43:26.164Z,101377.14
2019-01-08T18:45:54.683Z,101374.73
2019-01-08T18:48:23.598Z,101374.70
2019-01-08T18:50:52.176Z,101394.66
2019-01-08T18:53:20.815Z,101385.20
2019-01-08T18:55:49.453Z,101383.59
2019-01-08T18:58:18.052Z,101385.99
2019-01-08T19:00:46.654Z,101397.61
2019-01-08T19:03:15.265Z,101419.74
2019-01-08T19:05:43.792Z,101411.36
2019-01-08T19:08:12.401Z,101414.32
2019-01-08T19:10:41.016Z,101422.72
2019-01-08T19:13:09.689Z,101422.72
2019-01-08T19:15:38.352Z,101422.44
2019-01-08T19:18:06.944Z,101440.73
2019-01-08T19:20:35.516Z,101428.59
2019-01-08T19:23:04.229Z,101429.70
2019-01-08T19:25:33.634Z,101418.09
2019-01-08T19:28:02.218Z,101417.58
2019-01-08T19:30:30.901Z,101417.03
2019-01-08T19:32:59.552Z,101411.11
2019-01-08T19:35:31.740Z,101403.86
2019-01-08T19:37:58.474Z,101408.44
2019-01-08T19:40:27.211Z,101407.35
2019-01-08T19:42:55.855Z,101405.67
2019-01-08T19:45:24.534Z,101404.58
2019-01-08T19:47:53.204Z,101409.19
2019-01-08T19:50:21.832Z,101409.77
2019-01-08T19:52:50.534Z,101409.77
2019-01-08T19:55:19.128Z,101412.47
2019-01-08T19:57:47.759Z,101415.44
2019-01-08T20:00:16.390Z,101397.34
2019-01-08T20:02:45.117Z,101413.25
2019-01-08T20:05:13.686Z,101406.19
2019-01-08T20:07:42.461Z,101410.27
2019-01-08T20:10:11.167Z,101408.10
2019-01-08T20:12:39.673Z,101413.76
2019-01-08T20:15:08.999Z,101416.97
2019-01-08T20:17:37.590Z,101426.34
2019-01-08T20:20:07.175Z,101422.64
2019-01-08T20:22:35.738Z,101410.23
2019-01-08T20:25:04.923Z,101411.06
2019-01-08T20:27:34.539Z,101410.81
2019-01-08T20:30:03.239Z,101419.47
2019-01-08T20:32:31.839Z,101411.13
2019-01-08T20:35:00.415Z,101407.06
2019-01-08T20:37:29.066Z,101404.09
2019-01-08T20:39:57.546Z,101408.95
2019-01-08T20:42:26.265Z,101405.73
2019-01-08T20:44:54.905Z,101417.05
2019-01-08T20:47:23.534Z,101430.00
2019-01-08T20:49:52.233Z,101415.42
2019-01-08T20:52:20.913Z,101422.13
2019-01-08T20:58:55.554Z,101425.12
2019-01-08T21:01:24.231Z,101430.55
2019-01-08T21:03:52.782Z,101422.44
2019-01-08T21:06:21.346Z,101426.75
2019-01-08T21:08:49.993Z,101428.11
2019-01-08T21:11:18.515Z,101417.59
2019-01-08T21:13:46.993Z,101419.20
2019-01-08T21:16:15.541Z,101420.28
2019-01-08T21:18:44.075Z,101409.23
2019-01-08T21:21:12.620Z,101417.59
2019-01-08T21:23:41.088Z,101417.05
2019-01-08T21:26:09.758Z,101413.23
2019-01-08T21:28:38.259Z,101410.53
2019-01-08T21:31:06.824Z,101402.70
2019-01-08T21:33:35.908Z,101414.06
2019-01-08T21:36:04.480Z,101407.89
2019-01-08T21:38:33.115Z,101415.72
2019-01-08T21:41:36.014Z,101421.09
2019-01-08T21:44:04.624Z,101418.92
2019-01-08T21:46:33.258Z,101417.33
2019-01-08T21:49:01.827Z,101420.01
2019-01-08T21:51:30.415Z,101441.84
2019-01-08T21:53:58.909Z,101428.89
2019-01-08T21:56:27.556Z,101441.30
2019-01-08T21:58:56.083Z,101441.00
2019-01-08T22:01:25.144Z,101427.55
2019-01-08T22:03:53.708Z,101428.38
2019-01-08T22:13:36.891Z,101440.19
2019-01-08T22:16:05.427Z,101421.34
2019-01-08T22:18:33.988Z,101426.70
2019-01-08T22:21:02.634Z,101416.41
2019-01-08T22:23:31.064Z,101418.83
2019-01-08T22:25:59.568Z,101408.92
2019-01-08T22:28:28.084Z,101409.47
2019-01-08T22:30:57.334Z,101405.17
2019-01-08T22:33:25.969Z,101396.83
2019-01-08T22:35:54.510Z,101405.46
2019-01-08T22:38:22.993Z,101402.23
2019-01-08T22:40:52.480Z,101403.03
2019-01-08T22:43:21.119Z,101400.61
2019-01-08T22:45:50.248Z,101412.19
2019-01-08T22:48:19.029Z,101408.12
2019-01-08T22:50:47.645Z,101416.73
2019-01-08T22:53:16.168Z,101409.98
2019-01-08T22:55:44.734Z,101412.66
2019-01-08T22:58:13.294Z,101401.66
2019-01-08T23:00:50.164Z,101387.33
2019-01-08T23:03:18.873Z,101409.38
2019-01-08T23:05:47.695Z,101420.69
2019-01-08T23:08:16.983Z,101426.08
2019-01-08T23:10:45.829Z,101416.92
2019-01-08T23:13:15.242Z,101406.95
2019-01-08T23:15:43.831Z,101407.04
2019-01-08T23:18:12.279Z,101406.26
2019-01-08T23:20:40.698Z,101401.92
2019-01-08T23:23:09.296Z,101410.47
2019-01-08T23:25:37.787Z,101410.45
2019-01-08T23:28:06.416Z,101409.90
2019-01-08T23:30:34.995Z,101410.14
2019-01-08T23:33:03.547Z,101413.34
2019-01-08T23:35:32.117Z,101423.34
2019-01-08T23:38:00.734Z,101421.45
2019-01-08T23:40:29.618Z,101417.19
2019-01-08T23:42:58.248Z,101405.03
2019-01-08T23:45:26.774Z,101401.57
2019-01-08T23:47:55.344Z,101423.66
2019-01-08T23:50:23.937Z,101416.20
2019-01-08T23:53:09.593Z,101418.94
2019-01-08T23:55:43.938Z,101425.67
2019-01-08T23:58:15.438Z,101419.97
